Time;durP1;ratioP1;P1;durP2;ratioP2;P2;SDS_P1;SDS_P2;PMS_P1;PMS_P2;Temp;Humidity;BMP_temperature;BMP_pressure;BME280_temperature;BME280_humidity;BME280_pressure;Samples;Min_cycle;Max_cycle;Signal;HPM_P1;HPM_P2
2022/05/12 00:00:16;;;;;;;127.25;16.20;;;;;;;18.02;52.30;98450.79;2256037;79;20895;-80
2022/05/12 00:03:17;;;;;;;19.20;7.62;;;;;;;17.96;52.37;98454.90;2255746;79;20896;-79
2022/05/12 00:06:17;;;;;;;15.80;7.12;;;;;;;17.90;52.63;98452.41;2255693;79;20916;-80
2022/05/12 00:09:17;;;;;;;20.25;7.35;;;;;;;17.87;52.36;98449.83;2255748;79;21338;-82
2022/05/12 00:12:18;;;;;;;23.52;7.22;;;;;;;17.83;52.57;98447.72;2255705;77;20990;-82
2022/05/12 00:15:18;;;;;;;11.12;7.60;;;;;;;17.79;52.54;98445.61;2255652;79;20943;-81
2022/05/12 00:18:19;;;;;;;31.75;7.97;;;;;;;17.86;53.56;98444.14;2255824;78;20963;-82
2022/05/12 00:21:19;;;;;;;14.33;7.20;;;;;;;18.36;53.79;98447.75;2255561;79;20955;-81
2022/05/12 00:24:20;;;;;;;8.58;7.03;;;;;;;18.79;53.03;98441.36;2255683;79;20942;-80
2022/05/12 00:27:20;;;;;;;12.20;7.30;;;;;;;19.00;51.56;98430.63;2255138;79;20927;-81
2022/05/12 00:30:20;;;;;;;13.20;6.97;;;;;;;19.29;51.93;98433.78;2255483;79;20926;-80
2022/05/12 00:33:22;;;;;;;13.15;7.92;;;;;;;19.29;50.45;98428.48;2255771;79;20975;-81
2022/05/12 00:36:21;;;;;;;11.80;7.17;;;;;;;19.24;51.08;98431.73;2255698;79;20900;-81
2022/05/12 00:39:22;;;;;;;20.92;7.65;;;;;;;19.32;50.60;98427.94;2255523;79;20911;-81
2022/05/12 00:42:22;;;;;;;13.25;6.97;;;;;;;19.51;51.73;98422.09;2255945;79;20876;-82
2022/05/12 00:45:22;;;;;;;28.38;8.00;;;;;;;20.32;49.90;98417.28;2255716;79;20948;-82
2022/05/12 00:48:23;;;;;;;10.90;6.33;;;;;;;20.49;47.26;98418.52;2255943;79;20892;-81
2022/05/12 00:51:23;;;;;;;12.95;6.42;;;;;;;19.81;47.23;98421.63;2256052;79;20931;-81
2022/05/12 00:54:24;;;;;;;12.95;6.35;;;;;;;19.18;48.07;98422.65;2255841;79;20935;-81
2022/05/12 00:57:24;;;;;;;11.57;6.50;;;;;;;18.73;48.78;98423.88;2256002;79;20903;-83
2022/05/12 01:00:24;;;;;;;13.32;6.62;;;;;;;18.43;49.75;98420.26;2255947;79;20924;-81
2022/05/12 01:03:25;;;;;;;11.38;6.20;;;;;;;18.22;49.87;98426.09;2255887;79;21322;-81
2022/05/12 01:06:25;;;;;;;9.23;6.30;;;;;;;18.03;50.23;98416.42;2255837;79;20942;-81
2022/05/12 01:09:25;;;;;;;11.63;6.00;;;;;;;17.90;50.70;98419.40;2255174;79;20951;-81
2022/05/12 01:12:26;;;;;;;12.28;6.35;;;;;;;17.77;50.85;98417.05;2256212;78;20931;-82
2022/05/12 01:15:27;;;;;;;21.15;7.35;;;;;;;17.69;51.25;98415.05;2259728;79;20954;-78
2022/05/12 01:18:27;;;;;;;9.20;5.70;;;;;;;17.63;51.57;98419.12;2259792;79;21336;-82
2022/05/12 01:21:28;;;;;;;14.40;6.37;;;;;;;17.57;51.62;98412.66;2259537;79;20985;-83
2022/05/12 01:24:28;;;;;;;11.50;6.60;;;;;;;17.51;51.70;98418.95;2259594;79;20938;-82
2022/05/12 01:27:30;;;;;;;18.48;6.70;;;;;;;17.44;51.79;98406.80;2259473;79;21287;-81
2022/05/12 01:30:29;;;;;;;8.58;6.25;;;;;;;17.38;52.00;98410.02;2259314;79;20891;-80
2022/05/12 01:33:29;;;;;;;15.03;6.85;;;;;;;17.33;51.95;98414.50;2259331;79;20940;-80
2022/05/12 01:36:30;;;;;;;10.25;6.37;;;;;;;17.27;52.08;98408.04;2259210;79;20915;-80
2022/05/12 01:39:30;;;;;;;11.65;6.33;;;;;;;17.22;52.23;98415.19;2259116;79;20954;-80
2022/05/12 01:42:30;;;;;;;15.70;6.42;;;;;;;17.16;52.42;98411.78;2259416;79;20923;-80
2022/05/12 01:45:31;;;;;;;9.83;6.22;;;;;;;17.12;52.48;98408.79;2258915;79;20982;-81
2022/05/12 01:48:31;;;;;;;9.85;6.75;;;;;;;17.07;52.54;98406.70;2259247;79;20950;-80
2022/05/12 01:51:32;;;;;;;13.38;6.53;;;;;;;17.04;52.50;98404.12;2259364;79;20954;-81
2022/05/12 01:54:32;;;;;;;12.68;6.05;;;;;;;17.02;52.57;98406.38;2259681;79;20899;-80
2022/05/12 01:57:32;;;;;;;27.65;7.50;;;;;;;17.02;52.56;98407.70;2260089;79;20876;-79
2022/05/12 02:00:33;;;;;;;24.95;8.25;;;;;;;17.10;54.06;98400.05;2260351;79;20927;-81
2022/05/12 02:03:34;;;;;;;16.27;7.05;;;;;;;17.61;55.08;98401.58;2260333;79;21255;-79
2022/05/12 02:06:34;;;;;;;13.60;6.92;;;;;;;18.07;54.21;98401.36;2258927;79;20962;-81
2022/05/12 02:09:34;;;;;;;13.88;6.40;;;;;;;18.45;53.46;98401.27;2259898;79;20922;-83
2022/05/12 02:12:35;;;;;;;22.15;6.67;;;;;;;18.48;50.45;98396.80;2258939;79;21367;-80
2022/05/12 02:15:35;;;;;;;13.90;7.05;;;;;;;18.08;50.12;98395.17;2255989;79;20930;-80
2022/05/12 02:18:35;;;;;;;14.10;6.97;;;;;;;17.75;50.40;98389.83;2255584;79;20904;-82
2022/05/12 02:21:36;;;;;;;15.53;7.35;;;;;;;17.54;50.68;98387.66;2255909;79;20903;-81
2022/05/12 02:24:36;;;;;;;13.30;6.28;;;;;;;17.39;50.97;98385.37;2256008;79;20903;-81
2022/05/12 02:27:37;;;;;;;16.45;6.37;;;;;;;17.29;51.13;98387.77;2256155;79;20931;-82
2022/05/12 02:30:37;;;;;;;10.82;6.50;;;;;;;17.23;51.27;98377.36;2255990;79;21298;-81
2022/05/12 02:33:38;;;;;;;10.93;6.62;;;;;;;17.15;51.35;98383.67;2256045;79;20904;-80
2022/05/12 02:36:38;;;;;;;16.00;7.00;;;;;;;17.09;51.62;98382.94;2256026;79;21389;-81
2022/05/12 02:39:40;;;;;;;13.22;7.55;;;;;;;17.06;51.48;98377.28;2255845;79;20955;-81
2022/05/12 02:42:38;;;;;;;13.55;7.45;;;;;;;17.05;51.51;98379.49;2255933;79;20898;-83
2022/05/12 02:45:39;;;;;;;18.20;7.15;;;;;;;17.03;51.81;98376.47;2255490;79;21306;-82
2022/05/12 02:48:39;;;;;;;13.58;7.58;;;;;;;17.03;51.58;98373.39;2255734;79;20900;-81
2022/05/12 02:51:43;;;;;;;15.53;7.22;;;;;;;17.02;51.59;98374.29;2256324;79;20872;-83
2022/05/12 02:54:40;;;;;;;13.55;7.00;;;;;;;17.03;51.55;98373.84;2256386;79;20966;-81
2022/05/12 02:57:41;;;;;;;17.80;6.92;;;;;;;17.04;51.54;98370.30;2256165;79;20935;-82
2022/05/12 03:00:41;;;;;;;14.55;7.00;;;;;;;17.04;51.48;98371.17;2256408;79;20922;-80
2022/05/12 03:03:41;;;;;;;13.13;6.92;;;;;;;17.07;51.46;98375.05;2256247;79;21323;-83
2022/05/12 03:06:42;;;;;;;10.55;6.92;;;;;;;17.08;51.37;98371.52;2256002;79;20935;-80
2022/05/12 03:09:42;;;;;;;10.20;6.50;;;;;;;17.10;51.35;98371.03;2256361;79;20908;-80
2022/05/12 03:12:43;;;;;;;13.62;6.25;;;;;;;17.13;51.20;98365.70;2255437;78;20935;-82
2022/05/12 03:15:43;;;;;;;16.85;6.22;;;;;;;17.15;51.20;98366.98;2249184;79;20948;-80
2022/05/12 03:18:46;;;;;;;24.00;6.85;;;;;;;17.17;51.21;98361.22;2249097;79;20952;-83
2022/05/12 03:21:46;;;;;;;15.75;6.50;;;;;;;17.20;51.06;98360.70;2249202;79;20949;-81
2022/05/12 03:24:44;;;;;;;7.50;4.78;;;;;;;17.28;50.92;98360.98;2249185;79;20876;-81
2022/05/12 03:27:44;;;;;;;14.28;5.97;;;;;;;17.35;50.77;98359.97;2248619;79;20956;-81
2022/05/12 03:30:45;;;;;;;11.85;5.50;;;;;;;17.46;50.58;98356.63;2247387;79;21333;-81
2022/05/12 03:33:48;;;;;;;19.48;6.08;;;;;;;17.54;50.42;98352.04;2247686;78;20971;-81
2022/05/12 03:36:46;;;;;;;13.38;5.45;;;;;;;17.62;50.29;98352.72;2248681;79;20923;-81
2022/05/12 03:39:46;;;;;;;16.93;5.85;;;;;;;17.70;50.15;98360.03;2249156;79;20928;-81
2022/05/12 03:42:47;;;;;;;14.63;5.50;;;;;;;17.80;50.09;98358.03;2249181;79;21303;-82
2022/05/12 03:45:48;;;;;;;10.40;5.30;;;;;;;17.90;49.86;98362.18;2249335;79;20879;-79
2022/05/12 03:48:48;;;;;;;19.60;5.35;;;;;;;18.00;49.70;98352.25;2247524;79;20992;-78
2022/05/12 03:51:49;;;;;;;12.25;5.75;;;;;;;18.12;49.60;98358.53;2247733;79;20955;-78
2022/05/12 03:54:49;;;;;;;10.70;4.78;;;;;;;18.24;49.40;98350.77;2247526;79;21334;-78
2022/05/12 03:57:51;;;;;;;8.40;4.80;;;;;;;18.34;49.22;98349.16;2246375;79;20950;-78
2022/05/12 04:00:50;;;;;;;12.70;5.47;;;;;;;18.45;48.91;98345.77;2246634;79;20963;-77
2022/05/12 04:03:51;;;;;;;16.37;5.83;;;;;;;18.59;48.78;98335.27;2247242;79;21343;-77
2022/05/12 04:06:51;;;;;;;13.45;5.05;;;;;;;18.72;48.49;98338.00;2246159;79;20986;-78
2022/05/12 04:09:51;;;;;;;12.50;4.72;;;;;;;18.84;48.27;98338.97;2247354;79;20970;-77
2022/05/12 04:12:52;;;;;;;13.62;4.70;;;;;;;18.97;48.19;98330.22;2247402;78;20955;-78
2022/05/12 04:15:52;;;;;;;10.85;5.53;;;;;;;19.08;48.09;98334.30;2254946;79;20962;-78
2022/05/12 04:18:53;;;;;;;16.42;5.25;;;;;;;19.21;47.75;98330.82;2254072;79;21010;-77
2022/05/12 04:21:53;;;;;;;16.27;4.87;;;;;;;19.41;47.50;98336.81;2251218;79;20975;-77
2022/05/12 04:24:54;;;;;;;41.55;6.62;;;;;;;19.59;47.37;98342.88;2250544;79;20954;-78
2022/05/12 04:27:54;;;;;;;17.62;5.67;;;;;;;19.80;46.66;98329.84;2251300;79;21345;-78
2022/05/12 04:30:54;;;;;;;19.70;5.80;;;;;;;20.05;46.39;98332.10;2251820;79;21014;-77
2022/05/12 04:37:13;;;;;;;15.83;5.28;;;;;;;20.40;45.99;98337.98;2254149;79;20920;-77
2022/05/12 04:40:14;;;;;;;17.15;5.40;;;;;;;20.46;45.69;98341.28;2254913;79;21298;-78
2022/05/12 04:43:14;;;;;;;11.03;4.85;;;;;;;20.62;45.19;98350.88;2254470;79;20970;-76
2022/05/12 04:46:15;;;;;;;22.32;5.15;;;;;;;20.78;45.22;98349.39;2250651;79;20934;-76
2022/05/12 04:49:15;;;;;;;10.35;5.03;;;;;;;20.95;44.78;98341.70;2250505;79;21975;-78
2022/05/12 04:52:16;;;;;;;5.78;4.62;;;;;;;20.98;44.59;98344.23;2252514;79;21377;-83
2022/05/12 04:55:16;;;;;;;20.48;5.55;;;;;;;21.15;44.86;98348.03;2253546;79;20970;-81
2022/05/12 04:58:16;;;;;;;23.60;5.20;;;;;;;21.20;44.77;98357.55;2252269;79;21030;-82
2022/05/12 05:01:17;;;;;;;10.20;5.42;;;;;;;21.23;44.66;98356.59;2252448;79;20911;-80
2022/05/12 05:04:17;;;;;;;14.63;6.00;;;;;;;21.21;44.93;98355.30;2252470;79;20930;-80
2022/05/12 05:07:18;;;;;;;7.53;4.85;;;;;;;21.26;44.80;98355.15;2253098;79;20963;-81
2022/05/12 05:10:18;;;;;;;8.68;5.37;;;;;;;21.33;44.80;98353.98;2253410;79;20930;-81
2022/05/12 05:13:18;;;;;;;12.23;4.90;;;;;;;21.53;44.53;98355.84;2253731;77;21129;-83
2022/05/12 05:16:19;;;;;;;10.53;5.30;;;;;;;21.69;44.41;98354.34;2247158;79;21628;-79
2022/05/12 05:19:19;;;;;;;10.93;5.25;;;;;;;21.83;43.79;98353.30;2245592;79;20975;-81
2022/05/12 05:22:19;;;;;;;37.63;6.75;;;;;;;21.83;43.97;98357.30;2245782;79;21015;-80
2022/05/12 05:25:20;;;;;;;20.20;5.85;;;;;;;21.86;43.49;98358.49;2246677;79;20989;-82
2022/05/12 05:28:20;;;;;;;10.60;4.65;;;;;;;22.00;43.65;98343.30;2247213;79;20990;-80
2022/05/12 05:31:21;;;;;;;7.90;4.55;;;;;;;22.27;43.44;98354.59;2246699;79;20971;-80
2022/05/12 05:34:21;;;;;;;8.93;4.50;;;;;;;22.51;42.67;98351.32;2246666;79;20907;-82
2022/05/12 05:37:21;;;;;;;11.85;5.08;;;;;;;22.57;43.07;98353.74;2246170;79;20982;-80
2022/05/12 05:40:22;;;;;;;33.85;5.65;;;;;;;22.64;42.79;98361.84;2245419;78;21366;-80
2022/05/12 05:43:23;;;;;;;16.37;5.12;;;;;;;22.77;42.39;98362.16;2245584;79;20950;-81
2022/05/12 05:46:23;;;;;;;10.32;4.90;;;;;;;22.97;42.36;98364.82;2245468;79;21328;-83
2022/05/12 05:49:23;;;;;;;7.45;4.20;;;;;;;23.25;41.77;98367.06;2245381;79;20962;-80
2022/05/12 05:55:43;;;;;;;8.05;4.60;;;;;;;23.59;41.06;98364.20;2245838;78;20924;-81
2022/05/12 05:58:44;;;;;;;25.92;5.42;;;;;;;23.75;40.58;98360.70;2245077;79;21369;-80
2022/05/12 06:01:44;;;;;;;9.28;4.72;;;;;;;23.67;41.17;98357.55;2245740;79;20928;-80
2022/05/12 06:04:44;;;;;;;9.60;4.72;;;;;;;23.80;40.67;98361.81;2245723;79;20987;-80
2022/05/12 06:07:44;;;;;;;16.60;4.22;;;;;;;23.91;40.39;98348.81;2245936;79;20935;-81
2022/05/12 06:10:45;;;;;;;7.28;4.60;;;;;;;23.55;40.86;98362.61;2245798;79;20975;-78
2022/05/12 06:13:48;;;;;;;14.80;4.85;;;;;;;23.19;41.12;98356.23;2243618;77;20963;-80
2022/05/12 06:16:48;;;;;;;8.70;4.35;;;;;;;23.18;41.64;98354.97;2238455;79;20977;-79
2022/05/12 06:19:52;;;;;;;9.15;4.30;;;;;;;23.24;41.64;98352.49;2238411;79;20963;-83
2022/05/12 06:22:49;;;;;;;8.08;4.30;;;;;;;23.54;41.72;98356.39;2239545;79;21014;-81
2022/05/12 06:25:50;;;;;;;8.70;5.15;;;;;;;23.88;41.17;98340.98;2240041;79;20967;-80
2022/05/12 06:28:50;;;;;;;6.72;4.40;;;;;;;24.18;40.59;98353.70;2239005;79;20939;-79
2022/05/12 06:31:50;;;;;;;12.20;4.53;;;;;;;24.33;40.56;98346.31;2238360;79;21283;-82
2022/05/12 06:34:51;;;;;;;7.65;4.12;;;;;;;24.38;39.55;98353.61;2240238;79;20972;-80
2022/05/12 06:37:51;;;;;;;10.18;4.40;;;;;;;24.46;39.89;98367.41;2239004;79;21417;-80
2022/05/12 06:40:52;;;;;;;20.92;5.35;;;;;;;24.60;39.96;98354.21;2238471;79;20971;-81
2022/05/12 06:43:52;;;;;;;7.67;3.85;;;;;;;24.77;39.88;98356.84;2238671;79;20931;-80
2022/05/12 06:46:53;;;;;;;39.80;5.53;;;;;;;25.10;39.59;98365.35;2239242;79;20955;-79
2022/05/12 06:49:53;;;;;;;8.20;4.22;;;;;;;25.27;39.11;98363.13;2238688;79;21010;-80
2022/05/12 06:52:53;;;;;;;9.43;4.37;;;;;;;25.40;39.31;98362.36;2238256;79;21075;-80
2022/05/12 06:55:54;;;;;;;16.45;4.70;;;;;;;25.54;37.94;98367.40;2238681;79;20940;-80
2022/05/12 06:58:54;;;;;;;7.97;4.47;;;;;;;25.55;37.78;98366.45;2238993;79;20947;-80
2022/05/12 07:01:55;;;;;;;9.08;4.20;;;;;;;25.50;37.38;98364.52;2238665;79;21018;-82
2022/05/12 07:04:57;;;;;;;12.43;4.67;;;;;;;25.54;37.71;98359.38;2238718;79;21152;-80
2022/05/12 07:07:56;;;;;;;9.13;4.25;;;;;;;25.84;37.13;98379.05;2238809;79;21779;-79
2022/05/12 07:10:58;;;;;;;16.20;5.03;;;;;;;26.27;37.22;98370.76;2236965;79;21042;-80
2022/05/12 07:13:57;;;;;;;7.47;4.22;;;;;;;26.64;36.74;98371.25;2238491;77;20995;-80
2022/05/12 07:16:57;;;;;;;7.03;4.08;;;;;;;26.96;35.76;98382.70;2245569;79;21400;-79
2022/05/12 07:26:35;;;;;;;14.00;5.00;;;;;;;27.14;34.63;98376.70;2245354;79;21015;-79
2022/05/12 07:26:35;;;;;;;8.75;4.17;;;;;;;27.64;33.25;98380.20;2245573;78;21347;-80
2022/05/12 07:29:36;;;;;;;14.03;4.20;;;;;;;27.91;33.46;98366.84;2246945;79;20911;-79
2022/05/12 07:32:37;;;;;;;24.98;4.10;;;;;;;27.91;33.87;98370.87;2246659;79;21311;-81
2022/05/12 07:35:37;;;;;;;38.02;5.67;;;;;;;27.84;31.81;98379.80;2246389;79;21018;-80
2022/05/12 07:38:37;;;;;;;78.00;7.83;;;;;;;27.60;31.25;98373.30;2245158;79;21015;-81
2022/05/12 07:41:41;;;;;;;37.75;5.58;;;;;;;27.09;31.97;98373.45;2246819;79;20876;-80
2022/05/12 07:44:39;;;;;;;14.47;4.40;;;;;;;27.05;32.09;98382.16;2247010;79;20935;-82
2022/05/12 07:47:38;;;;;;;42.78;5.72;;;;;;;27.28;32.48;98370.00;2247377;79;21015;-80
2022/05/12 07:50:42;;;;;;;36.28;4.70;;;;;;;27.28;32.42;98377.55;2246005;79;21394;-80
2022/05/12 07:53:42;;;;;;;21.95;4.85;;;;;;;27.35;31.24;98375.34;2245529;79;21014;-81
2022/05/12 07:56:42;;;;;;;13.32;3.95;;;;;;;28.04;30.85;98382.98;2245631;79;20985;-80
2022/05/12 07:59:42;;;;;;;23.70;5.30;;;;;;;28.04;30.85;98382.98;2244543;79;21312;-78
2022/05/12 08:02:44;;;;;;;58.83;7.10;;;;;;;28.12;30.82;98369.92;2244900;79;21416;-81
2022/05/12 08:05:44;;;;;;;65.52;6.35;;;;;;;28.07;30.67;98387.67;2244799;79;21006;-80
2022/05/12 08:08:44;;;;;;;31.07;5.33;;;;;;;27.93;30.91;98394.43;2244790;79;20931;-81
2022/05/12 08:11:45;;;;;;;21.05;4.17;;;;;;;27.79;30.87;98395.34;2246108;79;20931;-81
2022/05/12 08:14:44;;;;;;;21.15;4.12;;;;;;;27.73;31.26;98393.02;2246464;79;21050;-81
2022/05/12 08:17:45;;;;;;;23.83;4.42;;;;;;;27.50;31.25;98413.71;2245283;79;21225;-81
2022/05/12 08:20:45;;;;;;;14.13;4.00;;;;;;;27.68;31.58;98387.58;2245328;79;21355;-82
2022/05/12 08:23:47;;;;;;;16.20;3.72;;;;;;;27.87;31.66;98389.47;2244496;79;21033;-80
2022/05/12 08:26:46;;;;;;;15.40;4.20;;;;;;;27.94;31.44;98393.95;2244863;79;21058;-81
2022/05/12 08:29:47;;;;;;;27.60;4.50;;;;;;;27.86;32.05;98391.77;2245123;79;21829;-82
2022/05/12 08:32:47;;;;;;;53.35;7.28;;;;;;;27.79;31.69;98391.31;2245573;79;20978;-81
2022/05/12 08:35:47;;;;;;;35.40;5.45;;;;;;;27.65;31.38;98401.17;2246105;79;20919;-81
2022/05/12 08:38:48;;;;;;;19.60;4.33;;;;;;;27.43;31.52;98401.66;2246641;79;21074;-80
2022/05/12 08:41:48;;;;;;;14.07;4.30;;;;;;;27.50;31.54;98417.73;2246495;79;20967;-79
2022/05/12 08:44:49;;;;;;;16.12;4.10;;;;;;;27.67;31.85;98401.45;2246383;78;21003;-80
2022/05/12 08:47:49;;;;;;;27.67;5.10;;;;;;;27.79;31.79;98398.50;2246503;79;21345;-79
2022/05/12 08:50:49;;;;;;;14.47;3.98;;;;;;;27.76;31.32;98406.73;2245612;79;21004;-79
2022/05/12 08:53:50;;;;;;;24.50;4.35;;;;;;;27.90;31.91;98396.83;2245500;79;20974;-82
2022/05/12 08:56:50;;;;;;;33.50;5.08;;;;;;;28.10;31.62;98405.39;2245896;79;21334;-81
2022/05/12 08:59:51;;;;;;;14.90;4.20;;;;;;;28.13;30.88;98393.11;2245861;79;21077;-80
2022/05/12 09:02:51;;;;;;;21.85;4.85;;;;;;;28.05;30.92;98420.92;2245569;79;20920;-79
2022/05/12 09:05:51;;;;;;;10.23;4.42;;;;;;;28.05;31.35;98401.67;2245235;79;21005;-80
2022/05/12 09:08:52;;;;;;;11.75;4.08;;;;;;;28.32;30.89;98409.73;2245645;79;20955;-79
2022/05/12 09:11:52;;;;;;;32.15;5.00;;;;;;;28.67;30.51;98411.88;2245135;79;21067;-79
2022/05/12 09:14:53;;;;;;;34.08;5.65;;;;;;;28.57;30.38;98423.70;2243964;79;20963;-78
2022/05/12 09:17:54;;;;;;;20.92;4.30;;;;;;;28.62;30.54;98414.88;2238270;79;21330;-80
2022/05/12 09:20:54;;;;;;;22.90;4.58;;;;;;;28.93;30.61;98410.97;2238783;79;20935;-80
2022/05/12 09:23:54;;;;;;;20.05;4.42;;;;;;;29.23;30.51;98410.64;2239054;79;21402;-80
2022/05/12 09:26:54;;;;;;;12.58;3.60;;;;;;;29.45;29.90;98418.92;2237085;79;20892;-81
2022/05/12 09:29:55;;;;;;;45.25;5.20;;;;;;;29.59;28.48;98415.27;2239227;79;21027;-82
2022/05/12 09:32:55;;;;;;;22.07;4.58;;;;;;;29.61;28.38;98423.23;2238599;79;20935;-80
2022/05/12 09:35:56;;;;;;;22.05;4.53;;;;;;;29.73;27.78;98415.61;2239374;79;20951;-79
2022/05/12 09:38:57;;;;;;;17.82;4.22;;;;;;;29.71;28.06;98430.52;2239584;79;21007;-80
2022/05/12 09:41:57;;;;;;;15.23;3.70;;;;;;;29.69;28.18;98427.56;2240225;79;21030;-80
2022/05/12 09:44:57;;;;;;;47.05;5.95;;;;;;;29.26;28.63;98445.84;2240153;79;20915;-80
2022/05/12 09:47:57;;;;;;;13.93;3.58;;;;;;;28.58;29.40;98439.33;2239344;79;20943;-84
2022/05/12 09:50:58;;;;;;;22.50;4.47;;;;;;;28.70;29.93;98439.38;2239293;79;20939;-80
2022/05/12 09:53:58;;;;;;;11.85;3.35;;;;;;;28.87;28.78;98438.73;2239400;79;21038;-80
2022/05/12 09:56:59;;;;;;;10.28;3.62;;;;;;;29.05;28.79;98432.95;2239373;79;21017;-81
2022/05/12 09:59:59;;;;;;;13.80;5.05;;;;;;;29.25;29.21;98424.83;2240399;79;21023;-82
2022/05/12 10:09:39;;;;;;;5.50;3.37;;;;;;;29.55;28.95;98433.08;2240752;79;21221;-83
2022/05/12 10:12:39;;;;;;;11.20;4.15;;;;;;;29.06;29.32;98460.20;2239641;79;21050;-81
2022/05/12 10:15:41;;;;;;;21.75;4.70;;;;;;;28.67;29.66;98457.53;2241943;79;20975;-80
2022/05/12 10:18:40;;;;;;;13.72;4.00;;;;;;;28.29;30.63;98471.66;2245501;79;20994;-82
2022/05/12 10:21:42;;;;;;;37.53;5.10;;;;;;;28.09;30.84;98457.33;2245612;79;20995;-82
2022/05/12 10:24:44;;;;;;;35.43;4.87;;;;;;;28.33;30.46;98465.13;2246198;79;21033;-81
2022/05/12 10:27:44;;;;;;;12.98;4.65;;;;;;;28.11;30.48;98472.84;2247018;79;20923;-80
2022/05/12 10:30:47;;;;;;;21.85;4.65;;;;;;;28.04;30.69;98457.62;2247175;79;20982;-80
2022/05/12 10:33:49;;;;;;;10.43;3.58;;;;;;;28.09;30.11;98477.45;2244847;79;21551;-79
2022/05/12 10:36:48;;;;;;;14.18;3.98;;;;;;;28.02;30.24;98466.25;2244488;79;20971;-81
2022/05/12 10:39:49;;;;;;;11.45;3.70;;;;;;;27.63;30.41;98461.60;2245143;79;20994;-81
2022/05/12 10:42:50;;;;;;;19.85;4.35;;;;;;;27.44;30.71;98469.05;2244532;79;20991;-79
2022/05/12 10:45:49;;;;;;;20.25;3.80;;;;;;;27.43;31.03;98488.77;2244037;79;20970;-81
2022/05/12 10:48:50;;;;;;;22.75;4.28;;;;;;;27.67;30.84;98472.99;2246053;79;20982;-79
2022/05/12 10:51:50;;;;;;;96.78;8.48;;;;;;;28.07;31.08;98491.45;2246602;79;21091;-79
2022/05/12 10:54:51;;;;;;;20.82;4.33;;;;;;;27.25;33.09;98507.70;2242970;78;21034;-82
2022/05/12 10:57:51;;;;;;;19.00;4.30;;;;;;;26.73;34.09;98518.42;2245248;79;21952;-80
2022/05/12 11:00:52;;;;;;;18.17;4.20;;;;;;;26.82;34.55;98509.37;2245076;79;20983;-79
2022/05/12 11:03:54;;;;;;;18.75;3.95;;;;;;;26.72;33.94;98529.61;2244999;79;20997;-81
2022/05/12 11:06:52;;;;;;;23.85;4.37;;;;;;;26.82;33.88;98515.20;2244840;79;21533;-82
2022/05/12 11:09:53;;;;;;;19.82;3.90;;;;;;;26.99;32.93;98524.97;2244867;79;21413;-82
2022/05/12 11:12:53;;;;;;;11.00;3.90;;;;;;;26.90;32.67;98517.84;2245539;79;20981;-81
2022/05/12 11:15:54;;;;;;;18.12;4.33;;;;;;;27.21;32.42;98526.27;2249942;78;20970;-79
2022/05/12 11:18:54;;;;;;;22.65;4.22;;;;;;;27.25;32.01;98534.50;2256896;79;21032;-78
2022/05/12 11:21:55;;;;;;;14.95;3.02;;;;;;;26.83;31.96;98539.21;2257500;79;20934;-80
2022/05/12 11:24:55;;;;;;;20.60;3.90;;;;;;;26.84;31.06;98528.89;2257109;79;20990;-80
2022/05/12 11:29:41;;;;;;;13.93;3.65;;;;;;;26.98;30.46;98548.22;2257126;79;20939;-80
2022/05/12 11:30:56;;;;;;;46.30;5.25;;;;;;;27.26;30.83;98550.96;2257825;79;20939;-81
2022/05/12 11:33:56;;;;;;;14.87;3.62;;;;;;;27.32;30.30;98551.07;2258457;79;20967;-80
2022/05/12 11:36:57;;;;;;;28.23;3.92;;;;;;;27.53;30.78;98542.19;2256873;79;20911;-80
2022/05/12 11:39:57;;;;;;;22.67;3.80;;;;;;;27.41;29.92;98561.70;2256867;79;20970;-81
2022/05/12 11:46:16;;;;;;;22.42;4.00;;;;;;;26.84;29.90;98588.27;2256715;78;20951;-82
2022/05/12 11:49:17;;;;;;;38.08;4.50;;;;;;;26.64;30.46;98564.00;2257018;79;20958;-82
2022/05/12 11:52:17;;;;;;;52.50;5.65;;;;;;;26.72;30.04;98584.97;2256689;79;21029;-80
2022/05/12 11:55:17;;;;;;;19.50;4.65;;;;;;;26.80;29.66;98582.23;2256410;79;21063;-83
2022/05/12 11:58:18;;;;;;;16.32;4.62;;;;;;;27.09;30.51;98570.34;2256261;79;21029;-81
2022/05/12 12:01:18;;;;;;;33.30;5.80;;;;;;;27.83;32.44;98580.56;2255795;79;20966;-80
2022/05/12 12:04:19;;;;;;;44.10;4.60;;;;;;;27.83;32.44;98580.56;2255913;79;21005;-81
2022/05/12 12:07:19;;;;;;;11.20;4.33;;;;;;;27.58;32.02;98585.66;2256332;79;20907;-81
2022/05/12 12:10:19;;;;;;;15.58;3.58;;;;;;;27.17;31.39;98590.37;2255796;79;20927;-82
2022/05/12 12:13:20;;;;;;;10.48;3.80;;;;;;;26.96;31.80;98600.50;2256162;79;20946;-80
2022/05/12 12:16:21;;;;;;;11.15;3.55;;;;;;;26.98;31.80;98588.39;2253626;79;20975;-80
2022/05/12 12:19:21;;;;;;;7.25;3.10;;;;;;;27.00;32.37;98597.68;2252245;79;21002;-81
2022/05/12 12:22:21;;;;;;;52.53;5.67;;;;;;;26.90;32.08;98603.55;2251690;79;21601;-79
2022/05/12 12:25:22;;;;;;;20.65;3.85;;;;;;;26.87;31.11;98613.06;2251479;79;21105;-82
2022/05/12 12:28:22;;;;;;;19.60;3.80;;;;;;;26.85;30.10;98622.13;2252234;79;20942;-82
2022/05/12 12:31:22;;;;;;;28.50;3.92;;;;;;;27.00;29.84;98619.97;2252301;79;20927;-81
2022/05/12 12:34:31;;;;;;;13.68;3.17;;;;;;;27.14;29.66;98614.66;2251932;79;21029;-80
2022/05/12 12:37:29;;;;;;;28.87;3.58;;;;;;;27.13;30.12;98612.08;2252049;79;21306;-81
2022/05/12 12:40:30;;;;;;;15.75;3.10;;;;;;;26.61;31.52;98639.98;2253016;79;20946;-79
2022/05/12 12:43:30;;;;;;;43.17;5.62;;;;;;;26.28;32.44;98636.48;2252308;79;20962;-80
2022/05/12 12:46:30;;;;;;;10.10;3.00;;;;;;;26.10;32.75;98640.17;2252195;79;20955;-80
2022/05/12 12:49:31;;;;;;;5.33;2.95;;;;;;;26.01;32.64;98639.72;2252137;79;20960;-79
2022/05/12 12:52:31;;;;;;;7.92;2.83;;;;;;;26.68;32.01;98635.63;2253983;79;22158;-82
2022/05/12 12:58:51;;;;;;;7.47;2.83;;;;;;;26.34;31.56;98639.72;2252572;79;21447;-81
2022/05/12 13:01:51;;;;;;;15.60;2.80;;;;;;;26.00;32.38;98643.78;2253324;79;20931;-80
2022/05/12 13:04:51;;;;;;;14.30;3.08;;;;;;;25.55;32.71;98651.06;2253341;79;21005;-80
2022/05/12 13:07:52;;;;;;;19.20;3.87;;;;;;;25.19;33.35;98666.69;2252240;79;20962;-80
2022/05/12 13:10:52;;;;;;;14.23;2.50;;;;;;;25.08;33.96;98668.53;2252432;79;21006;-82
2022/05/12 13:13:53;;;;;;;14.83;2.75;;;;;;;25.20;33.76;98669.76;2253021;79;20998;-80
2022/05/12 13:16:53;;;;;;;18.40;2.50;;;;;;;25.43;33.79;98677.94;2252529;78;20986;-79
2022/05/12 13:19:53;;;;;;;20.65;3.00;;;;;;;25.80;33.07;98671.59;2252527;79;20986;-80
2022/05/12 13:22:54;;;;;;;12.63;2.45;;;;;;;25.85;32.67;98672.68;2252059;79;21262;-81
2022/05/12 13:25:54;;;;;;;18.57;3.05;;;;;;;26.01;31.10;98668.28;2253315;79;21552;-81
2022/05/12 13:28:54;;;;;;;14.87;3.37;;;;;;;26.25;31.02;98654.05;2254205;79;21007;-81
2022/05/12 13:31:55;;;;;;;35.95;3.70;;;;;;;26.55;30.27;98651.05;2253816;79;21953;-80
2022/05/12 13:34:57;;;;;;;31.62;3.70;;;;;;;26.83;29.33;98657.03;2254326;79;20923;-80
2022/05/12 13:37:56;;;;;;;10.55;2.12;;;;;;;27.33;29.23;98664.48;2254402;79;20927;-81
2022/05/12 13:40:56;;;;;;;24.27;3.20;;;;;;;27.04;28.85;98663.03;2254065;79;21465;-82
2022/05/12 13:43:57;;;;;;;12.10;2.25;;;;;;;27.04;28.85;98663.03;2253738;79;20943;-80
2022/05/12 13:46:59;;;;;;;7.87;2.10;;;;;;;26.91;29.13;98660.64;2254339;79;20912;-81
2022/05/12 13:49:58;;;;;;;18.40;2.77;;;;;;;26.68;28.90;98667.75;2254901;79;21303;-80
2022/05/12 13:52:58;;;;;;;31.15;3.10;;;;;;;26.56;28.72;98681.34;2255125;79;20966;-82
2022/05/12 13:55:58;;;;;;;6.92;1.80;;;;;;;26.51;27.45;98668.22;2253618;79;20971;-81
2022/05/12 13:59:01;;;;;;;15.28;2.25;;;;;;;26.33;28.12;98670.58;2253971;79;20915;-80
2022/05/12 14:01:59;;;;;;;16.40;2.40;;;;;;;26.15;28.16;98675.09;2254039;79;21200;-79
2022/05/12 14:05:00;;;;;;;19.57;2.22;;;;;;;26.18;29.37;98676.26;2253073;79;20966;-80
2022/05/12 14:08:00;;;;;;;19.30;2.67;;;;;;;26.26;29.31;98682.06;2253308;79;20942;-80
2022/05/12 14:11:00;;;;;;;24.18;2.80;;;;;;;26.02;29.64;98702.97;2254284;79;21338;-79
2022/05/12 14:20:39;;;;;;;18.75;2.87;;;;;;;25.27;31.66;98696.55;2247646;78;20999;-80
2022/05/12 14:23:39;;;;;;;18.95;2.40;;;;;;;25.37;31.40;98704.97;2247009;79;20943;-81
2022/05/12 14:26:40;;;;;;;30.27;3.15;;;;;;;25.55;31.36;98697.83;2246963;79;21061;-80
2022/05/12 14:29:40;;;;;;;27.93;3.00;;;;;;;25.68;31.21;98705.17;2247734;79;20974;-80